Time;durP1;ratioP1;P1;durP2;ratioP2;P2;SDS_P1;SDS_P2;PMS_P1;PMS_P2;Temp;Humidity;BMP_temperature;BMP_pressure;BME280_temperature;BME280_humidity;BME280_pressure;Samples;Min_cycle;Max_cycle;Signal;HPM_P1;HPM_P2
2023/09/16 00:02:09;;;;;;;0.80;0.80;;;15.40;99.90;;;;;;4978578;28;20045;-92
2023/09/16 00:04:48;;;;;;;0.80;0.80;;;15.40;99.90;;;;;;4979609;28;20050;-91
2023/09/16 00:07:26;;;;;;;0.80;0.80;;;15.20;99.90;;;;;;4976750;28;20049;-91
2023/09/16 00:09:57;;;;;;;0.80;0.80;;;15.30;99.90;;;;;;4979696;28;20096;-91
2023/09/16 00:12:26;;;;;;;0.80;0.80;;;15.20;99.90;;;;;;4982662;28;20038;-92
2023/09/16 00:15:10;;;;;;;0.70;0.70;;;15.10;99.90;;;;;;4977925;28;20053;-91
2023/09/16 00:17:43;;;;;;;0.80;0.80;;;15.30;99.90;;;;;;4977366;28;20057;-91
2023/09/16 00:20:14;;;;;;;0.80;0.80;;;15.10;99.90;;;;;;4989212;28;20492;-91
2023/09/16 00:22:45;;;;;;;0.70;0.70;;;15.00;99.90;;;;;;4971054;28;20035;-91
2023/09/16 00:25:15;;;;;;;;;;;15.20;99.90;;;;;;4974701;28;20034;-93
2023/09/16 00:28:47;;;;;;;0.80;0.80;;;15.00;99.90;;;;;;4984667;28;19932;-93
2023/09/16 00:30:57;;;;;;;0.80;0.80;;;14.80;99.90;;;;;;4983024;28;20047;-92
2023/09/16 00:33:23;;;;;;;0.80;0.80;;;14.90;99.90;;;;;;4976664;28;20045;-92
2023/09/16 00:36:00;;;;;;;0.80;0.80;;;14.80;99.90;;;;;;4979377;28;20042;-92
2023/09/16 00:38:26;;;;;;;0.73;0.73;;;15.00;99.90;;;;;;4989885;28;20036;-92
2023/09/16 00:40:55;;;;;;;0.80;0.80;;;14.90;99.90;;;;;;4993442;28;20415;-91
2023/09/16 00:43:30;;;;;;;0.80;0.80;;;14.90;99.90;;;;;;4975535;28;20134;-91
2023/09/16 00:45:58;;;;;;;0.80;0.80;;;15.00;99.90;;;;;;4974887;28;20069;-89
2023/09/16 00:48:34;;;;;;;0.73;0.73;;;15.00;99.90;;;;;;4978010;28;20139;-91
2023/09/16 00:51:09;;;;;;;0.82;0.82;;;14.70;99.90;;;;;;4990772;28;20126;-90
2023/09/16 00:53:45;;;;;;;0.80;0.80;;;14.70;99.90;;;;;;4996891;28;20065;-90
2023/09/16 00:56:19;;;;;;;0.70;0.70;;;14.70;99.90;;;;;;4992404;28;20046;-91
2023/09/16 00:59:09;;;;;;;0.80;0.80;;;14.70;99.90;;;;;;4974663;28;20058;-89
2023/09/16 01:01:37;;;;;;;0.80;0.80;;;14.80;99.90;;;;;;4966021;28;20034;-91
2023/09/16 01:04:03;;;;;;;0.80;0.80;;;14.80;99.90;;;;;;4974760;28;20042;-89
2023/09/16 01:06:32;;;;;;;0.80;0.80;;;14.80;99.90;;;;;;4990891;28;20133;-90
2023/09/16 01:08:59;;;;;;;0.77;0.77;;;14.80;99.90;;;;;;4988680;28;20103;-91
2023/09/16 01:11:24;;;;;;;0.90;0.90;;;14.90;99.90;;;;;;4974263;28;20041;-90
2023/09/16 01:13:53;;;;;;;0.90;0.90;;;14.80;99.90;;;;;;4991349;28;20052;-92
2023/09/16 01:16:48;;;;;;;0.88;0.88;;;14.80;99.90;;;;;;4983610;28;20518;-91
2023/09/16 01:19:26;;;;;;;;;;;14.70;99.90;;;;;;4976509;28;20133;-91
2023/09/16 01:21:52;;;;;;;0.80;0.80;;;14.70;99.90;;;;;;4975496;28;19976;-90
2023/09/16 01:24:24;;;;;;;0.80;0.80;;;14.80;99.90;;;;;;4972224;28;20043;-90
2023/09/16 01:26:56;;;;;;;0.82;0.82;;;14.70;99.90;;;;;;4971188;28;20053;-91
2023/09/16 01:29:39;;;;;;;0.80;0.80;;;14.80;99.90;;;;;;4963443;28;20052;-91
2023/09/16 01:32:12;;;;;;;0.80;0.80;;;14.90;99.90;;;;;;4967211;28;20054;-90
2023/09/16 01:34:54;;;;;;;0.80;0.80;;;14.80;99.90;;;;;;4972879;28;20145;-90
2023/09/16 01:37:22;;;;;;;0.90;0.90;;;14.80;99.90;;;;;;4986987;28;20054;-90
2023/09/16 01:39:59;;;;;;;0.80;0.80;;;14.70;99.90;;;;;;4967940;28;20050;-91
2023/09/16 01:42:33;;;;;;;0.90;0.90;;;14.60;99.90;;;;;;4980243;28;20069;-91
2023/09/16 01:45:07;;;;;;;0.85;0.85;;;14.50;99.90;;;;;;4990646;28;20046;-91
2023/09/16 01:47:33;;;;;;;0.80;0.80;;;14.50;99.90;;;;;;4972983;28;20155;-90
2023/09/16 01:49:58;;;;;;;0.90;0.90;;;14.50;99.90;;;;;;4967384;28;20054;-91
2023/09/16 01:52:27;;;;;;;0.85;0.85;;;14.50;99.90;;;;;;4967698;28;20168;-92
2023/09/16 01:54:52;;;;;;;0.90;0.90;;;14.50;99.90;;;;;;4960047;28;20559;-91
2023/09/16 01:57:21;;;;;;;0.80;0.80;;;14.70;99.90;;;;;;4960743;28;20185;-91
2023/09/16 01:59:50;;;;;;;0.88;0.88;;;14.50;99.90;;;;;;4968965;28;20050;-90
2023/09/16 02:02:22;;;;;;;0.80;0.80;;;14.60;99.90;;;;;;4988768;28;20038;-91
2023/09/16 02:04:47;;;;;;;0.82;0.82;;;14.40;99.90;;;;;;4970208;28;20046;-90
2023/09/16 02:07:26;;;;;;;0.85;0.85;;;14.30;99.90;;;;;;4983587;28;20047;-90
2023/09/16 02:09:58;;;;;;;0.90;0.90;;;14.20;99.90;;;;;;4981262;28;20041;-91
2023/09/16 02:12:24;;;;;;;0.90;0.90;;;14.10;99.90;;;;;;4961633;28;20050;-90
2023/09/16 02:14:51;;;;;;;0.90;0.90;;;14.10;99.90;;;;;;4973651;28;20054;-91
2023/09/16 02:17:20;;;;;;;0.98;0.98;;;14.20;99.90;;;;;;4959944;28;20180;-91
2023/09/16 02:19:55;;;;;;;0.90;0.90;;;14.00;99.90;;;;;;4962909;28;20058;-91
2023/09/16 02:22:27;;;;;;;0.90;0.90;;;13.90;99.90;;;;;;4963523;28;20038;-91
2023/09/16 02:24:59;;;;;;;1.00;1.00;;;14.00;99.90;;;;;;4963303;28;20045;-89
2023/09/16 02:27:27;;;;;;;1.00;1.00;;;14.10;99.90;;;;;;4974374;28;20038;-88
2023/09/16 02:29:53;;;;;;;1.00;1.00;;;14.10;99.90;;;;;;4977362;28;20046;-89
2023/09/16 02:32:19;;;;;;;1.00;1.00;;;14.10;99.90;;;;;;4979939;28;20496;-89
2023/09/16 02:34:50;;;;;;;0.90;0.90;;;14.00;99.90;;;;;;4976943;28;20068;-88
2023/09/16 02:37:23;;;;;;;1.00;1.00;;;14.00;99.90;;;;;;4974833;28;20046;-89
2023/09/16 02:39:49;;;;;;;1.00;1.00;;;13.80;99.90;;;;;;4972264;28;20054;-88
2023/09/16 02:42:14;;;;;;;1.00;1.00;;;14.00;99.90;;;;;;4966161;28;20069;-89
2023/09/16 02:44:40;;;;;;;0.90;0.90;;;14.00;99.90;;;;;;4957248;28;20054;-89
2023/09/16 02:47:06;;;;;;;0.93;0.93;;;13.70;99.90;;;;;;4961078;28;20365;-88
2023/09/16 02:49:33;;;;;;;0.98;0.98;;;13.60;99.90;;;;;;4973798;28;20051;-89
2023/09/16 02:51:58;;;;;;;1.00;1.00;;;13.60;99.90;;;;;;4968441;28;20049;-88
2023/09/16 02:54:27;;;;;;;1.00;1.00;;;13.60;99.90;;;;;;4967383;28;20416;-88
2023/09/16 02:56:53;;;;;;;1.00;1.00;;;13.90;99.90;;;;;;4980311;28;20043;-88
2023/09/16 02:59:24;;;;;;;0.90;0.90;;;13.50;99.90;;;;;;4990957;28;20131;-90
2023/09/16 03:02:05;;;;;;;0.90;0.90;;;13.40;99.90;;;;;;4974873;28;20076;-88
2023/09/16 03:04:41;;;;;;;1.00;1.00;;;13.40;99.90;;;;;;4975970;28;20045;-89
2023/09/16 03:07:06;;;;;;;0.90;0.90;;;13.30;99.90;;;;;;4988441;28;20132;-90
2023/09/16 03:09:44;;;;;;;1.00;1.00;;;13.40;99.90;;;;;;4975549;28;20766;-90
2023/09/16 03:12:10;;;;;;;0.90;0.90;;;13.80;99.90;;;;;;4971693;28;20132;-91
2023/09/16 03:14:36;;;;;;;1.00;1.00;;;13.40;99.90;;;;;;4973906;28;20491;-90
2023/09/16 03:17:04;;;;;;;1.10;1.10;;;13.50;99.90;;;;;;4975628;28;20104;-88
2023/09/16 03:19:30;;;;;;;1.13;1.13;;;13.50;99.90;;;;;;4970151;28;20046;-91
2023/09/16 03:22:05;;;;;;;1.10;1.10;;;14.00;99.90;;;;;;4975207;28;20104;-90
2023/09/16 03:24:34;;;;;;;1.10;1.10;;;14.00;99.90;;;;;;4977109;28;20045;-90
2023/09/16 03:27:00;;;;;;;1.10;1.10;;;13.60;99.90;;;;;;4989151;28;20058;-90
2023/09/16 03:29:29;;;;;;;1.00;1.00;;;13.80;99.90;;;;;;4974992;28;20054;-90
2023/09/16 03:31:55;;;;;;;1.00;1.00;;;14.00;99.90;;;;;;4977814;28;20050;-90
2023/09/16 03:34:20;;;;;;;0.90;0.90;;;13.80;99.90;;;;;;4993832;28;20053;-90
2023/09/16 03:36:46;;;;;;;0.98;0.98;;;13.80;99.90;;;;;;4976658;28;20100;-91
2023/09/16 03:39:12;;;;;;;1.10;1.10;;;14.00;99.90;;;;;;4977664;28;20045;-89
2023/09/16 03:41:37;;;;;;;0.90;0.90;;;13.80;99.90;;;;;;4976871;28;20050;-89
2023/09/16 03:44:04;;;;;;;1.02;1.02;;;13.70;99.90;;;;;;4975743;28;21278;-90
2023/09/16 03:46:33;;;;;;;1.00;1.00;;;13.80;99.90;;;;;;4991634;28;20601;-89
2023/09/16 03:48:58;;;;;;;1.00;1.00;;;13.90;99.90;;;;;;4988979;28;20046;-90
2023/09/16 03:51:28;;;;;;;0.90;0.90;;;13.90;99.90;;;;;;4968340;28;20562;-89
2023/09/16 03:53:57;;;;;;;0.90;0.90;;;13.50;99.90;;;;;;4960024;28;20039;-90
2023/09/16 03:56:22;;;;;;;0.90;0.90;;;13.80;99.90;;;;;;4971841;28;20514;-87
2023/09/16 03:58:51;;;;;;;1.00;1.00;;;13.80;99.90;;;;;;4971391;28;20054;-89
2023/09/16 04:01:23;;;;;;;0.80;0.80;;;13.80;99.90;;;;;;4972884;28;20042;-90
2023/09/16 04:03:54;;;;;;;0.85;0.85;;;13.50;99.90;;;;;;4977994;28;20046;-91
2023/09/16 04:06:20;;;;;;;0.80;0.80;;;13.50;99.90;;;;;;4956676;28;20038;-88
2023/09/16 04:08:46;;;;;;;0.82;0.82;;;13.50;99.90;;;;;;4963340;28;20502;-90
2023/09/16 04:11:12;;;;;;;0.88;0.88;;;13.70;99.90;;;;;;4959359;28;20128;-91
2023/09/16 04:13:38;;;;;;;0.80;0.80;;;13.70;99.90;;;;;;4967031;28;20054;-91
2023/09/16 04:16:33;;;;;;;0.70;0.70;;;13.60;99.90;;;;;;4979601;28;20045;-91
2023/09/16 04:19:07;;;;;;;0.70;0.70;;;13.60;99.90;;;;;;4939140;28;20050;-88
2023/09/16 04:21:33;;;;;;;0.70;0.70;;;13.60;99.90;;;;;;4952730;28;20053;-89
2023/09/16 04:24:02;;;;;;;0.80;0.80;;;13.70;99.90;;;;;;4963798;28;20045;-90
2023/09/16 04:26:30;;;;;;;0.80;0.80;;;13.60;99.90;;;;;;4956784;28;20048;-88
2023/09/16 04:29:02;;;;;;;0.75;0.75;;;13.40;99.90;;;;;;4958472;28;20085;-88
2023/09/16 04:31:34;;;;;;;1.40;1.30;;;13.80;99.90;;;;;;4963409;28;20054;-89
2023/09/16 04:34:08;;;;;;;0.70;0.70;;;13.70;99.90;;;;;;4978009;28;20050;-89
2023/09/16 04:36:34;;;;;;;0.80;0.80;;;13.60;99.90;;;;;;4954030;28;20038;-90
2023/09/16 04:39:06;;;;;;;0.80;0.80;;;13.80;99.90;;;;;;4960121;28;20052;-90
2023/09/16 04:41:35;;;;;;;0.90;0.90;;;13.40;99.90;;;;;;4956990;28;20070;-94
2023/09/16 04:44:03;;;;;;;1.00;1.00;;;13.40;99.90;;;;;;4960326;28;20046;-90
2023/09/16 04:46:38;;;;;;;0.90;0.90;;;13.60;99.90;;;;;;4959016;28;20039;-90
2023/09/16 04:49:04;;;;;;;0.90;0.90;;;13.50;99.90;;;;;;4962023;28;20050;-89
2023/09/16 04:51:30;;;;;;;0.85;0.85;;;13.40;99.90;;;;;;4981532;28;20038;-90
2023/09/16 04:53:58;;;;;;;0.85;0.85;;;13.50;99.90;;;;;;4972467;28;20048;-90
2023/09/16 04:56:24;;;;;;;1.05;1.05;;;13.60;99.90;;;;;;4976048;28;20042;-90
2023/09/16 04:58:52;;;;;;;0.90;0.90;;;13.40;99.90;;;;;;4974912;28;20049;-90
2023/09/16 05:01:21;;;;;;;1.00;1.00;;;13.40;99.90;;;;;;4973854;28;20136;-90
2023/09/16 05:03:52;;;;;;;0.95;0.95;;;13.50;99.90;;;;;;4990896;28;20048;-91
2023/09/16 05:06:25;;;;;;;1.00;1.00;;;13.60;99.90;;;;;;4974883;28;20050;-89
2023/09/16 05:08:54;;;;;;;0.98;0.98;;;13.30;99.90;;;;;;4986346;28;20053;-91
2023/09/16 05:11:26;;;;;;;1.00;1.00;;;13.50;99.90;;;;;;4977630;28;20054;-88
2023/09/16 05:13:52;;;;;;;1.00;1.00;;;13.30;99.90;;;;;;4972542;28;20053;-89
2023/09/16 05:16:21;;;;;;;1.00;1.00;;;13.40;99.90;;;;;;4974997;28;20070;-91
2023/09/16 05:18:49;;;;;;;1.00;1.00;;;13.70;99.90;;;;;;4973608;28;20053;-88
2023/09/16 05:21:15;;;;;;;1.10;1.10;;;13.40;99.90;;;;;;4969762;28;20042;-88
2023/09/16 05:23:41;;;;;;;1.08;1.08;;;13.50;99.90;;;;;;4974610;28;20048;-89
2023/09/16 05:26:12;;;;;;;1.02;1.02;;;13.30;99.90;;;;;;4973550;28;20042;-89
2023/09/16 05:28:43;;;;;;;1.15;1.15;;;13.30;99.90;;;;;;4953208;28;20082;-88
2023/09/16 05:31:24;;;;;;;1.02;1.02;;;13.30;99.90;;;;;;4983624;28;20057;-89
2023/09/16 05:33:59;;;;;;;1.10;1.10;;;13.40;99.90;;;;;;4976614;28;20133;-89
2023/09/16 05:36:32;;;;;;;1.10;1.10;;;13.70;99.90;;;;;;4992976;28;20089;-90
2023/09/16 05:39:02;;;;;;;1.10;1.10;;;13.40;99.90;;;;;;4994296;28;20052;-89
2023/09/16 05:41:35;;;;;;;1.10;1.10;;;13.40;99.90;;;;;;4976343;28;20046;-88
2023/09/16 05:44:13;;;;;;;1.20;1.20;;;13.60;99.90;;;;;;4973729;28;20106;-91
2023/09/16 05:46:41;;;;;;;1.10;1.10;;;13.60;99.90;;;;;;4977588;28;20096;-89
2023/09/16 05:49:16;;;;;;;1.10;1.10;;;13.30;99.90;;;;;;4973662;28;20074;-88
2023/09/16 05:51:45;;;;;;;1.10;1.10;;;13.30;99.90;;;;;;4973130;28;20718;-91
2023/09/16 05:54:25;;;;;;;1.10;1.10;;;13.30;99.90;;;;;;4995259;28;20046;-90
2023/09/16 05:56:57;;;;;;;1.10;1.10;;;13.40;99.90;;;;;;4993542;28;20085;-91
2023/09/16 05:59:32;;;;;;;1.10;1.10;;;13.30;99.90;;;;;;4991106;28;20056;-88
2023/09/16 06:02:00;;;;;;;1.13;1.13;;;13.80;99.90;;;;;;4991199;28;20073;-89
2023/09/16 06:04:34;;;;;;;1.10;1.10;;;13.50;99.90;;;;;;4977477;28;20129;-89
2023/09/16 06:07:06;;;;;;;1.00;1.00;;;13.60;99.90;;;;;;4974918;28;20058;-89
2023/09/16 06:09:32;;;;;;;1.33;1.30;;;13.50;99.90;;;;;;4970557;28;20058;-89
2023/09/16 06:12:01;;;;;;;1.20;1.20;;;13.90;99.90;;;;;;4987831;28;20046;-88
2023/09/16 06:14:30;;;;;;;1.23;1.23;;;13.90;99.90;;;;;;4981875;28;20046;-88
2023/09/16 06:17:02;;;;;;;1.30;1.30;;;13.70;99.90;;;;;;4967335;28;20049;-87
2023/09/16 06:19:55;;;;;;;1.20;1.20;;;14.00;99.90;;;;;;4971163;28;20489;-89
2023/09/16 06:22:23;;;;;;;1.20;1.20;;;13.80;99.90;;;;;;4991918;28;20054;-89
2023/09/16 06:24:52;;;;;;;1.20;1.20;;;14.10;99.90;;;;;;4973031;28;20530;-87
2023/09/16 06:27:20;;;;;;;1.30;1.30;;;14.10;99.90;;;;;;4970953;28;20046;-90
2023/09/16 06:29:52;;;;;;;1.20;1.20;;;13.80;99.90;;;;;;4992401;28;20057;-88
2023/09/16 06:32:21;;;;;;;1.17;1.17;;;14.10;99.90;;;;;;4985830;28;20119;-90
2023/09/16 06:34:50;;;;;;;1.10;1.10;;;13.90;99.90;;;;;;4982324;28;20152;-88
2023/09/16 06:37:18;;;;;;;1.20;1.20;;;14.00;99.90;;;;;;4993313;28;20121;-88
2023/09/16 06:39:46;;;;;;;1.20;1.20;;;14.40;99.90;;;;;;4987056;28;20129;-88
2023/09/16 06:42:12;;;;;;;1.20;1.20;;;14.50;99.90;;;;;;4973347;28;20053;-84
2023/09/16 06:44:37;;;;;;;1.15;1.15;;;14.30;99.90;;;;;;4984887;28;20112;-88
2023/09/16 06:47:06;;;;;;;1.10;1.10;;;14.40;99.90;;;;;;4989070;28;20045;-85
2023/09/16 06:49:31;;;;;;;1.10;1.10;;;14.50;99.90;;;;;;4988038;28;20045;-88
2023/09/16 06:51:57;;;;;;;1.08;1.08;;;14.70;99.90;;;;;;4975943;28;20053;-86
2023/09/16 06:54:23;;;;;;;1.00;1.00;;;14.60;99.90;;;;;;4993146;28;20054;-89
2023/09/16 06:56:55;;;;;;;1.00;1.00;;;15.00;99.90;;;;;;4989699;28;20050;-89
2023/09/16 06:59:23;;;;;;;1.00;1.00;;;15.10;99.90;;;;;;4973987;28;20045;-89
2023/09/16 07:01:49;;;;;;;1.00;1.00;;;14.90;99.90;;;;;;4972374;28;20046;-85
2023/09/16 07:04:15;;;;;;;1.00;1.00;;;15.00;99.90;;;;;;4976027;28;20052;-86
2023/09/16 07:06:40;;;;;;;1.00;1.00;;;15.40;99.90;;;;;;4990738;28;20080;-90
2023/09/16 07:09:14;;;;;;;1.00;1.00;;;15.20;99.90;;;;;;4993357;28;20520;-93
2023/09/16 07:11:46;;;;;;;1.00;1.00;;;15.20;99.90;;;;;;4976520;28;20041;-90
2023/09/16 07:14:12;;;;;;;1.00;1.00;;;15.60;99.90;;;;;;4971112;28;20068;-88
2023/09/16 07:16:40;;;;;;;0.90;0.90;;;15.30;99.90;;;;;;4971017;28;20912;-87
2023/09/16 07:19:09;;;;;;;0.90;0.90;;;15.40;99.90;;;;;;4974747;28;20073;-87
2023/09/16 07:21:35;;;;;;;0.90;0.90;;;15.50;99.90;;;;;;4972527;28;20128;-86
2023/09/16 07:24:01;;;;;;;0.80;0.80;;;15.70;99.90;;;;;;4992423;28;20160;-89
2023/09/16 07:26:31;;;;;;;0.80;0.80;;;15.50;99.90;;;;;;4991930;28;20046;-91
2023/09/16 07:29:03;;;;;;;0.80;0.80;;;15.70;99.90;;;;;;4975307;28;20129;-91
2023/09/16 07:31:29;;;;;;;0.80;0.80;;;15.80;99.90;;;;;;4974829;28;20049;-91
2023/09/16 07:34:01;;;;;;;0.90;0.90;;;15.90;99.90;;;;;;4977925;28;20487;-91
2023/09/16 07:36:27;;;;;;;0.80;0.80;;;16.10;99.90;;;;;;4977706;28;20080;-93
2023/09/16 07:38:52;;;;;;;0.70;0.70;;;16.10;99.90;;;;;;4975497;28;20788;-90
2023/09/16 07:41:21;;;;;;;0.80;0.80;;;16.20;99.90;;;;;;4991613;28;20041;-91
2023/09/16 07:43:47;;;;;;;0.70;0.70;;;16.40;99.90;;;;;;4993344;28;20049;-91
2023/09/16 07:46:21;;;;;;;0.70;0.70;;;16.30;99.90;;;;;;4975433;28;20096;-88
2023/09/16 07:48:47;;;;;;;0.60;0.60;;;16.40;99.90;;;;;;5008328;28;20048;-92
2023/09/16 07:51:13;;;;;;;0.70;0.70;;;16.40;99.90;;;;;;4975559;28;20039;-92
2023/09/16 07:53:39;;;;;;;0.60;0.60;;;16.60;99.90;;;;;;4977136;28;20746;-90
2023/09/16 07:56:04;;;;;;;0.60;0.60;;;16.70;99.90;;;;;;4974698;28;20077;-89
2023/09/16 07:58:30;;;;;;;0.60;0.60;;;16.80;99.90;;;;;;4982992;28;20052;-89
2023/09/16 08:00:56;;;;;;;0.70;0.70;;;17.00;99.90;;;;;;4982179;28;20502;-91
2023/09/16 08:03:22;;;;;;;0.70;0.70;;;17.00;99.90;;;;;;4973385;28;20061;-92
2023/09/16 08:05:51;;;;;;;0.70;0.70;;;17.10;99.90;;;;;;4978043;28;20188;-91
2023/09/16 08:08:16;;;;;;;0.70;0.70;;;17.20;99.90;;;;;;4973059;28;20412;-83
2023/09/16 08:10:51;;;;;;;0.80;0.80;;;17.30;99.90;;;;;;5001513;28;20038;-85
2023/09/16 08:13:20;;;;;;;0.80;0.80;;;17.50;99.90;;;;;;4990583;28;20112;-90
2023/09/16 08:15:52;;;;;;;1.02;1.02;;;17.20;99.90;;;;;;4975228;28;20719;-92
2023/09/16 08:18:27;;;;;;;0.93;0.93;;;17.50;99.90;;;;;;4973170;28;20051;-90
2023/09/16 08:20:53;;;;;;;0.90;0.90;;;17.80;99.90;;;;;;4991814;28;20060;-86
2023/09/16 08:23:30;;;;;;;0.98;0.98;;;18.10;99.90;;;;;;4993884;28;20550;-95
2023/09/16 08:25:56;;;;;;;0.80;0.80;;;18.40;99.90;;;;;;4977800;28;20054;-89
2023/09/16 08:28:28;;;;;;;0.80;0.80;;;18.70;99.90;;;;;;4982211;28;20099;-87
2023/09/16 08:31:00;;;;;;;0.80;0.80;;;19.10;99.90;;;;;;4972810;28;20054;-89
2023/09/16 08:33:25;;;;;;;0.80;0.80;;;19.20;99.90;;;;;;4976200;28;20708;-88
2023/09/16 08:35:51;;;;;;;0.70;0.70;;;19.50;99.90;;;;;;4989794;28;20049;-89
2023/09/16 08:38:17;;;;;;;0.80;0.80;;;19.60;99.90;;;;;;4975255;28;20046;-88
2023/09/16 08:40:55;;;;;;;0.70;0.70;;;19.80;99.90;;;;;;4988784;28;20056;-86
2023/09/16 08:43:42;;;;;;;0.80;0.80;;;19.70;99.90;;;;;;4976352;28;20743;-87
2023/09/16 08:46:15;;;;;;;0.77;0.77;;;19.60;99.90;;;;;;4994523;28;20065;-87
2023/09/16 08:48:46;;;;;;;;;;;19.90;99.90;;;;;;4990308;28;20506;-90
2023/09/16 08:51:16;;;;;;;0.80;0.80;;;19.60;99.90;;;;;;4971910;28;20544;-90
2023/09/16 08:53:56;;;;;;;0.80;0.80;;;19.30;99.90;;;;;;4975989;28;20042;-89
2023/09/16 08:56:28;;;;;;;0.68;0.68;;;19.40;99.90;;;;;;4987450;28;20042;-89
2023/09/16 08:58:55;;;;;;;0.70;0.70;;;19.70;99.90;;;;;;4965338;28;20139;-88
2023/09/16 09:01:21;;;;;;;0.70;0.70;;;19.70;99.90;;;;;;4983045;28;20159;-90
2023/09/16 09:03:47;;;;;;;0.63;0.63;;;19.70;99.90;;;;;;4982300;28;20516;-89
2023/09/16 09:06:17;;;;;;;0.70;0.70;;;19.90;99.90;;;;;;4974075;28;20057;-93
2023/09/16 09:08:59;;;;;;;0.60;0.60;;;20.20;99.90;;;;;;4978801;28;20416;-89
2023/09/16 09:11:25;;;;;;;0.60;0.60;;;20.30;99.90;;;;;;4983447;28;20162;-89
2023/09/16 09:13:52;;;;;;;0.60;0.60;;;20.50;99.90;;;;;;4995152;28;20128;-91
2023/09/16 09:16:20;;;;;;;0.60;0.60;;;20.70;99.90;;;;;;4992839;28;20104;-89
2023/09/16 09:18:49;;;;;;;0.50;0.50;;;20.90;99.90;;;;;;4978190;28;20046;-88
2023/09/16 09:21:16;;;;;;;0.50;0.50;;;20.90;99.90;;;;;;4985342;28;20066;-87
2023/09/16 09:23:42;;;;;;;0.60;0.60;;;21.00;99.90;;;;;;4975346;28;20069;-93
2023/09/16 09:26:07;;;;;;;0.50;0.50;;;21.10;99.90;;;;;;4977388;28;20636;-88
2023/09/16 09:28:33;;;;;;;0.50;0.50;;;21.30;99.90;;;;;;4993437;28;20607;-86
2023/09/16 09:31:00;;;;;;;0.60;0.60;;;21.50;99.90;;;;;;4989319;28;20093;-88
2023/09/16 09:33:27;;;;;;;0.50;0.50;;;21.70;99.90;;;;;;4989552;28;20035;-91
2023/09/16 09:39:16;;;;;;;0.50;0.50;;;21.90;99.90;;;;;;4969765;28;20061;-90
2023/09/16 09:41:46;;;;;;;0.40;0.40;;;22.00;99.90;;;;;;4975289;28;20185;-91
2023/09/16 09:44:13;;;;;;;0.50;0.50;;;22.60;99.90;;;;;;4977072;28;20550;-84
2023/09/16 09:46:40;;;;;;;0.45;0.45;;;22.20;99.90;;;;;;4991925;28;20495;-89
2023/09/16 09:49:14;;;;;;;0.50;0.50;;;22.50;99.90;;;;;;4991300;28;20046;-92
2023/09/16 09:51:42;;;;;;;0.40;0.40;;;22.30;99.90;;;;;;4976233;28;20522;-92
2023/09/16 09:54:10;;;;;;;0.40;0.40;;;22.50;99.90;;;;;;4972953;28;20095;-88
2023/09/16 09:56:44;;;;;;;0.40;0.40;;;22.40;99.90;;;;;;4973783;28;20060;-89
2023/09/16 09:59:19;;;;;;;0.50;0.50;;;23.00;99.90;;;;;;4977115;28;20467;-89
2023/09/16 10:01:45;;;;;;;0.50;0.50;;;22.80;99.90;;;;;;4978503;28;20042;-90
2023/09/16 10:04:20;;;;;;;0.43;0.43;;;23.00;99.90;;;;;;5007434;28;20104;-92
2023/09/16 10:06:46;;;;;;;0.50;0.50;;;23.30;99.90;;;;;;4972700;28;20403;-94
2023/09/16 10:09:15;;;;;;;0.50;0.50;;;23.70;99.90;;;;;;4999497;28;20038;-91
2023/09/16 10:11:47;;;;;;;0.50;0.50;;;23.40;99.90;;;;;;4976505;28;20053;-88
2023/09/16 10:14:13;;;;;;;0.30;0.30;;;23.70;99.90;;;;;;4978454;28;20054;-90
2023/09/16 10:16:40;;;;;;;0.77;0.77;;;23.80;99.90;;;;;;4976896;28;20053;-91
2023/09/16 10:19:05;;;;;;;0.30;0.30;;;24.10;99.90;;;;;;4976766;28;20050;-88
2023/09/16 10:21:40;;;;;;;0.35;0.35;;;24.20;99.90;;;;;;4976282;28;20050;-90
2023/09/16 10:24:09;;;;;;;0.60;0.60;;;24.00;99.90;;;;;;4975416;28;20061;-92
2023/09/16 10:26:39;;;;;;;0.30;0.30;;;24.60;99.90;;;;;;4982423;28;20048;-89
2023/09/16 10:29:08;;;;;;;0.30;0.30;;;24.40;99.90;;;;;;4978027;28;20050;-91
2023/09/16 10:34:52;;;;;;;0.30;0.30;;;24.60;99.90;;;;;;4996851;28;20045;-91
2023/09/16 10:37:25;;;;;;;0.47;0.47;;;24.60;99.90;;;;;;4993047;28;20582;-93
2023/09/16 10:39:55;;;;;;;0.38;0.38;;;24.90;99.90;;;;;;4982760;28;20792;-86
2023/09/16 10:42:22;;;;;;;0.30;0.30;;;24.70;99.90;;;;;;4993291;28;20046;-87
2023/09/16 10:44:48;;;;;;;0.30;0.30;;;25.10;99.90;;;;;;4979379;28;20423;-85
2023/09/16 10:47:21;;;;;;;0.35;0.35;;;24.70;99.90;;;;;;5000638;28;20053;-86
2023/09/16 10:49:50;;;;;;;0.40;0.40;;;25.10;99.90;;;;;;4993716;28;20077;-89
2023/09/16 10:52:51;;;;;;;0.30;0.30;;;25.00;99.90;;;;;;4975945;28;20045;-94
2023/09/16 10:55:25;;;;;;;0.30;0.30;;;25.00;99.90;;;;;;4992464;28;20083;-90
2023/09/16 10:58:15;;;;;;;0.30;0.30;;;25.10;99.90;;;;;;4993634;28;20109;-90
2023/09/16 11:00:58;;;;;;;0.40;0.40;;;25.60;99.90;;;;;;4983525;28;20834;-90
2023/09/16 11:03:32;;;;;;;0.30;0.30;;;25.40;99.90;;;;;;4977154;28;20056;-89
2023/09/16 11:06:04;;;;;;;0.40;0.40;;;25.80;99.90;;;;;;4995769;28;20054;-87
2023/09/16 11:08:30;;;;;;;0.30;0.30;;;25.60;99.90;;;;;;4991825;28;20499;-85
2023/09/16 11:10:57;;;;;;;0.30;0.30;;;25.90;99.90;;;;;;4998159;28;20056;-86
2023/09/16 11:13:28;;;;;;;0.30;0.30;;;26.20;99.90;;;;;;4981956;28;20127;-90
2023/09/16 11:15:58;;;;;;;0.30;0.30;;;26.00;99.90;;;;;;4996571;28;20033;-91
2023/09/16 11:18:24;;;;;;;0.30;0.30;;;26.30;99.90;;;;;;4976572;28;20842;-89
2023/09/16 11:20:59;;;;;;;0.30;0.30;;;26.00;99.90;;;;;;4976536;28;20124;-92
2023/09/16 11:23:31;;;;;;;0.30;0.30;;;26.50;99.90;;;;;;4994140;28;20081;-90
2023/09/16 11:26:04;;;;;;;0.30;0.30;;;26.40;99.90;;;;;;4974048;28;20041;-89
2023/09/16 11:28:30;;;;;;;0.30;0.30;;;26.60;99.90;;;;;;4974872;28;20062;-91
2023/09/16 11:31:08;;;;;;;0.30;0.30;;;26.00;99.90;;;;;;4991096;28;20093;-90
2023/09/16 11:33:38;;;;;;;0.30;0.30;;;26.40;99.90;;;;;;4990946;28;20076;-89
2023/09/16 11:36:11;;;;;;;0.22;0.22;;;26.60;99.90;;;;;;4974874;28;20097;-89
2023/09/16 11:38:38;;;;;;;0.30;0.30;;;26.40;99.90;;;;;;4985233;28;20111;-91
2023/09/16 11:41:10;;;;;;;0.30;0.30;;;26.00;99.90;;;;;;4970005;28;20455;-89
2023/09/16 11:43:39;;;;;;;0.30;0.30;;;25.60;99.90;;;;;;4988054;28;20816;-88
2023/09/16 11:46:09;;;;;;;0.30;0.30;;;25.60;99.90;;;;;;4997445;28;20041;-94
2023/09/16 11:48:52;;;;;;;0.30;0.30;;;25.60;99.90;;;;;;4992246;28;20108;-92
2023/09/16 11:51:22;;;;;;;0.30;0.30;;;25.20;99.90;;;;;;4997473;28;20045;-90
2023/09/16 11:53:51;;;;;;;0.30;0.30;;;25.70;99.90;;;;;;4978583;28;20418;-90
2023/09/16 11:56:30;;;;;;;0.30;0.30;;;25.70;99.90;;;;;;4992503;28;20042;-96
2023/09/16 11:58:57;;;;;;;0.63;0.30;;;26.00;99.90;;;;;;4978560;28;20192;-90
2023/09/16 12:01:40;;;;;;;0.30;0.30;;;26.20;99.90;;;;;;4971677;28;20037;-91
2023/09/16 12:04:39;;;;;;;0.30;0.30;;;26.60;99.90;;;;;;4974772;28;20073;-89
2023/09/16 12:07:05;;;;;;;0.50;0.50;;;26.60;99.90;;;;;;4971038;28;20089;-89
2023/09/16 12:09:32;;;;;;;0.30;0.30;;;26.70;99.90;;;;;;4988511;28;20459;-89
2023/09/16 12:12:04;;;;;;;0.30;0.30;;;26.80;99.90;;;;;;4987897;28;20054;-92
2023/09/16 12:14:53;;;;;;;0.30;0.30;;;26.70;99.90;;;;;;4979001;28;20100;-92
2023/09/16 12:17:18;;;;;;;0.30;0.30;;;26.50;99.90;;;;;;4990602;28;20137;-91
2023/09/16 12:19:54;;;;;;;0.30;0.30;;;26.70;99.90;;;;;;4992138;28;20403;-90
2023/09/16 12:22:29;;;;;;;0.30;0.30;;;26.30;99.90;;;;;;4972820;28;20042;-95
2023/09/16 12:24:58;;;;;;;0.30;0.30;;;26.60;99.90;;;;;;4980188;28;20044;-91
2023/09/16 12:27:25;;;;;;;0.40;0.40;;;26.60;99.90;;;;;;4978217;28;20156;-90
2023/09/16 12:29:53;;;;;;;0.30;0.30;;;26.50;99.90;;;;;;4977269;28;20042;-92
2023/09/16 12:32:37;;;;;;;0.30;0.30;;;26.70;99.90;;;;;;4977058;28;20557;-90
2023/09/16 12:35:10;;;;;;;0.40;0.40;;;26.50;99.90;;;;;;4986547;28;20194;-96
2023/09/16 12:37:39;;;;;;;0.30;0.30;;;26.90;99.90;;;;;;4969091;28;20034;-91
2023/09/16 12:40:11;;;;;;;0.30;0.30;;;26.60;99.90;;;;;;4967161;28;20121;-88
2023/09/16 12:42:43;;;;;;;0.30;0.30;;;26.40;99.90;;;;;;4986624;28;20799;-89
2023/09/16 12:45:12;;;;;;;0.30;0.30;;;26.70;99.90;;;;;;4992129;28;20492;-92
2023/09/16 12:47:48;;;;;;;0.30;0.30;;;26.40;99.90;;;;;;4978943;28;20041;-93
2023/09/16 12:50:21;;;;;;;0.30;0.30;;;26.70;99.90;;;;;;4980008;28;20046;-93
2023/09/16 12:53:22;;;;;;;0.30;0.30;;;26.40;99.90;;;;;;4981466;28;20049;-93
2023/09/16 12:55:52;;;;;;;0.30;0.30;;;26.80;99.90;;;;;;4991480;28;20041;-92
2023/09/16 12:58:22;;;;;;;0.43;0.38;;;27.20;99.90;;;;;;4979964;28;20029;-94
2023/09/16 13:00:53;;;;;;;0.30;0.30;;;27.30;99.90;;;;;;4980230;28;20112;-91
2023/09/16 13:03:25;;;;;;;0.30;0.30;;;27.20;99.90;;;;;;4994501;28;20053;-94
2023/09/16 13:06:02;;;;;;;0.30;0.30;;;27.00;99.90;;;;;;4994054;28;20041;-92
2023/09/16 13:08:28;;;;;;;0.30;0.30;;;27.20;99.90;;;;;;4974931;28;20042;-90
2023/09/16 13:11:03;;;;;;;0.38;0.38;;;27.20;99.90;;;;;;4977111;28;20060;-92
2023/09/16 13:13:35;;;;;;;0.30;0.30;;;27.10;99.90;;;;;;4968856;28;20176;-89